EKRK/RKE METAR and TAF weather

Enter ICAO airport designator
Station Type Date Time Source
EKRK METAR 2018/04/21 11:20 UTC NOAA

EKRK 211120Z AUTO 30014KT 9999NDV NCD 15/05 Q1020


Station Type Date Time Source
EKRK Decoded METAR 2018/04/21 11:20 UTC NOAA

Koebenhavn / Roskilde, Denmark (EKRK) 55-35N 012-08E 44M
Apr 21, 2018 - 07:20 AM EDT / 2018.04.21 1120 UTC
Wind: from the WNW (300 degrees) at 16 MPH (14 KT):0
Temperature: 59 F (15 C)
Dew Point: 41 F (5 C)
Relative Humidity: 51%
Pressure (altimeter): 30.12 in. Hg (1020 hPa)
ob: EKRK 211120Z AUTO 30014KT 9999NDV NCD 15/05 Q1020
cycle: 11

Station Type Date Time Source
EKRK TAF UTC NOAA

Error!


Example: see airport list